F/V Argentario — FGPE — position and weather

sailwx.info

Track history (hours):
 
Tides and Currents Weather Stations Pressure Air Temp Water Temp Dewpoint Dewpoint Depression Visibility Wind Speed Wind Dir Waves Ship Positions

F/V Argentario

Last reported at 2017-Mar-20 15:33 UTC. Time now 2017-Mar-29 21:11 UTC.
Position N 46°44' W 002°21'.
Warning: this ship's position is 9 days out of date.

Length 22 m; draft 3.4 m.

Type: Fishing. MMSI: 228975000.

Date/timePositionNaut miles runAvg speedWind from/ knotsBaromVisibWave heightAir tempDewpointWater temp
2017-Mar-20 15:33N 46°44' W 002°21'10 2.4
2017-Mar-20 11:32N 46°37' W 002°30'3 2.5
2017-Mar-20 10:22N 46°34' W 002°28'2 2.6
2017-Mar-20 09:32N 46°36' W 002°26'3 2.5
2017-Mar-20 08:31N 46°35' W 002°29'2 2.2
2017-Mar-20 07:33N 46°36' W 002°31'0 0.4
2017-Mar-20 06:30N 46°36' W 002°30'2 2.4
2017-Mar-20 05:33N 46°34' W 002°28'2 1.6
2017-Mar-20 04:32N 46°36' W 002°29'0 0.3
2017-Mar-20 03:33N 46°36' W 002°29'0 0.1
2017-Mar-20 00:33N 46°36' W 002°29'0 0.0
2017-Mar-19 14:30N 46°36' W 002°29'0 0.1
2017-Mar-19 13:26N 46°36' W 002°29'1 0.8
2017-Mar-19 12:05N 46°36' W 002°30'1 1.7
2017-Mar-19 11:32N 46°35' W 002°29'5 2.5
2017-Mar-19 09:28N 46°36' W 002°22'0 0.3
2017-Mar-19 08:26N 46°36' W 002°23'2 1.1
2017-Mar-19 06:27N 46°36' W 002°26'1 1.1
2017-Mar-19 05:13N 46°35' W 002°27'1 0.8
2017-Mar-19 04:18N 46°35' W 002°28'1 0.3
2017-Mar-19 02:21N 46°35' W 002°29'0 0.0
2017-Mar-19 01:21N 46°35' W 002°29'0 0.0
2017-Mar-19 00:33N 46°35' W 002°29'0 0.0
2017-Mar-18 16:27N 46°35' W 002°29'0 0.0
2017-Mar-18 15:30N 46°35' W 002°29'0 0.4
2017-Mar-18 14:32N 46°35' W 002°29'4 4.0
2017-Mar-18 13:31N 46°34' W 002°35'5 4.8
2017-Mar-18 12:29N 46°35' W 002°28'2 1.8
2017-Mar-18 11:25N 46°36' W 002°25'2 2.6
2017-Mar-18 10:33N 46°37' W 002°22'4 3.9
2017-Mar-18 09:25N 46°35' W 002°28'0 0.1
2017-Mar-18 08:34N 46°34' W 002°28'1 1.1
2017-Mar-18 07:28N 46°35' W 002°27'3 3.2
2017-Mar-18 06:26N 46°37' W 002°23'1 0.4
2017-Mar-18 04:33N 46°36' W 002°23'1 0.8
2017-Mar-18 03:34N 46°37' W 002°22'2 1.6
2017-Mar-18 02:20N 46°35' W 002°23'0 0.0
2017-Mar-18 01:23N 46°35' W 002°23'0 0.0
2017-Mar-18 00:11N 46°35' W 002°23'0 0.0
2017-Mar-17 21:17N 46°35' W 002°23'0 0.0
2017-Mar-17 20:26N 46°35' W 002°23'8 1.2
2017-Mar-17 14:07N 46°34' W 002°34'3 3.5
2017-Mar-17 13:19N 46°34' W 002°30'1 1.9
2017-Mar-17 12:33N 46°34' W 002°28'5 3.7
2017-Mar-17 11:13N 46°37' W 002°22'2 1.7
2017-Mar-17 10:17N 46°36' W 002°23'1 0.5
2017-Mar-17 07:32N 46°35' W 002°25'4 3.5
2017-Mar-17 06:32N 46°31' W 002°26'4 2.8
2017-Mar-17 05:16N 46°35' W 002°24'1 0.9
2017-Mar-17 04:33N 46°35' W 002°24'3 2.6
2017-Mar-17 03:32N 46°33' W 002°26'0 0.3
2017-Mar-17 02:28N 46°33' W 002°26'0 0.0
2017-Mar-17 01:28N 46°33' W 002°26'0 0.1
2017-Mar-17 00:25N 46°33' W 002°26'0 0.2
2017-Mar-16 23:31N 46°33' W 002°26'0 0.0
2017-Mar-16 22:31N 46°33' W 002°26'0 0.0
2017-Mar-16 21:25N 46°33' W 002°26'0 0.0
2017-Mar-16 20:19N 46°33' W 002°26'0 0.1
2017-Mar-16 19:31N 46°33' W 002°26'0 0.1
2017-Mar-16 18:25N 46°33' W 002°26'0 0.1
2017-Mar-16 17:31N 46°33' W 002°26'0 0.0
2017-Mar-16 16:19N 46°33' W 002°26'0 0.1
2017-Mar-16 14:28N 46°33' W 002°26'0 0.2
2017-Mar-16 13:33N 46°33' W 002°26'0 0.5
2017-Mar-16 12:33N 46°33' W 002°26'0 0.2
2017-Mar-16 11:33N 46°33' W 002°26'1 0.7
2017-Mar-16 10:32N 46°33' W 002°27'3 2.6
2017-Mar-16 09:33N 46°35' W 002°25'2 1.9
2017-Mar-16 08:28N 46°34' W 002°26'2 2.4
2017-Mar-16 07:33N 46°35' W 002°24'2 2.5
2017-Mar-16 06:33N 46°33' W 002°26'3 2.7
2017-Mar-16 05:29N 46°36' W 002°23'3 3.1
2017-Mar-16 04:33N 46°33' W 002°26'3 3.0
2017-Mar-16 03:30N 46°36' W 002°23'0 0.1
2017-Mar-16 02:33N 46°36' W 002°23'0 0.0
2017-Mar-16 01:16N 46°36' W 002°23'0 0.0
2017-Mar-16 00:33N 46°36' W 002°23'0 0.0
2017-Mar-15 23:06N 46°36' W 002°23'0 0.0
2017-Mar-15 22:34N 46°36' W 002°23'0 0.0
2017-Mar-15 21:31N 46°36' W 002°23'0 0.0
2017-Mar-15 20:03N 46°36' W 002°23'0 0.5
2017-Mar-15 19:30N 46°36' W 002°23'9 9.0
2017-Mar-15 18:33N 46°33' W 002°11'9 9.0
2017-Mar-15 17:33N 46°31' W 001°58'7 7.4
2017-Mar-15 16:33N 46°30' W 001°47'0 0.2
2017-Mar-15 15:33N 46°30' W 001°47'6 5.5
2017-Mar-15 14:33N 46°30' W 001°55'9 9.2
2017-Mar-15 13:33N 46°32' W 002°08'9 8.8
2017-Mar-15 12:32N 46°35' W 002°21'2 2.0
2017-Mar-15 11:28N 46°35' W 002°24'0 0.3
2017-Mar-15 10:33N 46°36' W 002°24'0 0.3
2017-Mar-15 09:33N 46°36' W 002°24'3 2.9
2017-Mar-15 08:23N 46°33' W 002°27'3 2.2
2017-Mar-15 07:10N 46°35' W 002°24'2 2.6
2017-Mar-15 06:32N 46°34' W 002°26'0 0.4
2017-Mar-15 05:31N 46°33' W 002°26'1 1.3
2017-Mar-15 04:25N 46°34' W 002°24'9 3.2
2017-Mar-15 01:28N 46°44' W 002°21'0 0.0
2017-Mar-14 14:25N 46°44' W 002°21'4 4.1
2017-Mar-14 13:31N 46°42' W 002°16'9 9.3
2017-Mar-14 12:30N 46°34' W 002°24'1 0.9
2017-Mar-14 11:33N 46°34' W 002°25'1 0.6
2017-Mar-14 10:33N 46°34' W 002°25'1 1.3
2017-Mar-14 09:33N 46°33' W 002°26'3 2.8
2017-Mar-14 08:33N 46°35' W 002°23'3 2.5
2017-Mar-14 07:33N 46°33' W 002°26'1 1.0
2017-Mar-14 06:33N 46°33' W 002°27'2 1.6
2017-Mar-14 05:33N 46°34' W 002°25'0 0.4
2017-Mar-14 04:33N 46°34' W 002°26'2 1.8
2017-Mar-14 03:33N 46°35' W 002°24'2 2.2
2017-Mar-14 02:33N 46°34' W 002°27'1 1.2
2017-Mar-14 01:32N 46°33' W 002°27'0 0.0
2017-Mar-14 00:32N 46°33' W 002°27'12 1.2
2017-Mar-13 14:33N 46°41' W 002°16'10 1.0
2017-Mar-13 04:26N 46°33' W 002°26'11 0.7
2017-Mar-12 13:20N 46°44' W 002°20'8 1.0
2017-Mar-12 05:33N 46°36' W 002°23'3 2.7
2017-Mar-12 04:33N 46°34' W 002°25'3 2.9
2017-Mar-12 03:32N 46°36' W 002°22'4 3.4
2017-Mar-12 02:30N 46°34' W 002°26'0 0.0
2017-Mar-11 22:22N 46°34' W 002°26'0 0.1
2017-Mar-11 21:33N 46°34' W 002°26'0 0.0
2017-Mar-11 19:31N 46°33' W 002°26'0 0.0
2017-Mar-11 18:33N 46°33' W 002°26'0 0.1
2017-Mar-11 17:15N 46°33' W 002°26'0 0.1
2017-Mar-11 16:30N 46°33' W 002°26'0 0.0
2017-Mar-11 15:31N 46°33' W 002°26'1 0.6
2017-Mar-11 14:31N 46°34' W 002°25'2 1.5
2017-Mar-11 13:20N 46°35' W 002°24'4 4.5
2017-Mar-11 12:33N 46°34' W 002°29'4 4.4
2017-Mar-11 11:33N 46°34' W 002°35'7 7.4
2017-Mar-11 10:33N 46°34' W 002°24'2 1.9
2017-Mar-11 09:33N 46°36' W 002°23'2 2.1
2017-Mar-11 08:33N 46°34' W 002°25'1 0.6
2017-Mar-11 07:32N 46°35' W 002°24'1 0.9
2017-Mar-11 06:33N 46°36' W 002°24'2 2.0
2017-Mar-11 05:33N 46°34' W 002°26'0 0.2
2017-Mar-11 04:33N 46°34' W 002°26'2 1.9
2017-Mar-11 03:31N 46°36' W 002°24'2 1.8
2017-Mar-11 02:33N 46°35' W 002°26'1 1.4
2017-Mar-11 01:33N 46°34' W 002°27'0 0.1
2017-Mar-11 00:30N 46°34' W 002°27'0 0.0
2017-Mar-10 23:24N 46°34' W 002°27'0 0.0
2017-Mar-10 22:27N 46°34' W 002°27'0 0.0
2017-Mar-10 15:33N 46°33' W 002°27'  
Track history (hours):
 
Tides and Currents Weather Stations Pressure Air Temp Water Temp Dewpoint Dewpoint Depression Visibility Wind Speed Wind Dir Waves Ship Positions

F/V Argentario

Last reported at 2017-Mar-20 15:33 UTC. Time now 2017-Mar-29 21:11 UTC.
Position N 46°44' W 002°21'.
Warning: this ship's position is 9 days out of date.

Length 22 m; draft 3.4 m.

Type: Fishing. MMSI: 228975000.

Date/timePositionNaut miles runAvg speedWind from/ knotsBaromVisibWave heightAir tempDewpointWater temp
2017-Mar-20 15:33N 46°44' W 002°21'10 2.4
2017-Mar-20 11:32N 46°37' W 002°30'3 2.5
2017-Mar-20 10:22N 46°34' W 002°28'2 2.6
2017-Mar-20 09:32N 46°36' W 002°26'3 2.5
2017-Mar-20 08:31N 46°35' W 002°29'2 2.2
2017-Mar-20 07:33N 46°36' W 002°31'0 0.4
2017-Mar-20 06:30N 46°36' W 002°30'2 2.4
2017-Mar-20 05:33N 46°34' W 002°28'2 1.6
2017-Mar-20 04:32N 46°36' W 002°29'0 0.3
2017-Mar-20 03:33N 46°36' W 002°29'0 0.1
2017-Mar-20 00:33N 46°36' W 002°29'0 0.0
2017-Mar-19 14:30N 46°36' W 002°29'0 0.1
2017-Mar-19 13:26N 46°36' W 002°29'1 0.8
2017-Mar-19 12:05N 46°36' W 002°30'1 1.7
2017-Mar-19 11:32N 46°35' W 002°29'5 2.5
2017-Mar-19 09:28N 46°36' W 002°22'0 0.3
2017-Mar-19 08:26N 46°36' W 002°23'2 1.1
2017-Mar-19 06:27N 46°36' W 002°26'1 1.1
2017-Mar-19 05:13N 46°35' W 002°27'1 0.8
2017-Mar-19 04:18N 46°35' W 002°28'1 0.3
2017-Mar-19 02:21N 46°35' W 002°29'0 0.0
2017-Mar-19 01:21N 46°35' W 002°29'0 0.0
2017-Mar-19 00:33N 46°35' W 002°29'0 0.0
2017-Mar-18 16:27N 46°35' W 002°29'0 0.0
2017-Mar-18 15:30N 46°35' W 002°29'0 0.4
2017-Mar-18 14:32N 46°35' W 002°29'4 4.0
2017-Mar-18 13:31N 46°34' W 002°35'5 4.8
2017-Mar-18 12:29N 46°35' W 002°28'2 1.8
2017-Mar-18 11:25N 46°36' W 002°25'2 2.6
2017-Mar-18 10:33N 46°37' W 002°22'4 3.9
2017-Mar-18 09:25N 46°35' W 002°28'0 0.1
2017-Mar-18 08:34N 46°34' W 002°28'1 1.1
2017-Mar-18 07:28N 46°35' W 002°27'3 3.2
2017-Mar-18 06:26N 46°37' W 002°23'1 0.4
2017-Mar-18 04:33N 46°36' W 002°23'1 0.8
2017-Mar-18 03:34N 46°37' W 002°22'2 1.6
2017-Mar-18 02:20N 46°35' W 002°23'0 0.0
2017-Mar-18 01:23N 46°35' W 002°23'0 0.0
2017-Mar-18 00:11N 46°35' W 002°23'0 0.0
2017-Mar-17 21:17N 46°35' W 002°23'0 0.0
2017-Mar-17 20:26N 46°35' W 002°23'8 1.2
2017-Mar-17 14:07N 46°34' W 002°34'3 3.5
2017-Mar-17 13:19N 46°34' W 002°30'1 1.9
2017-Mar-17 12:33N 46°34' W 002°28'5 3.7
2017-Mar-17 11:13N 46°37' W 002°22'2 1.7
2017-Mar-17 10:17N 46°36' W 002°23'1 0.5
2017-Mar-17 07:32N 46°35' W 002°25'4 3.5
2017-Mar-17 06:32N 46°31' W 002°26'4 2.8
2017-Mar-17 05:16N 46°35' W 002°24'1 0.9
2017-Mar-17 04:33N 46°35' W 002°24'3 2.6
2017-Mar-17 03:32N 46°33' W 002°26'0 0.3
2017-Mar-17 02:28N 46°33' W 002°26'0 0.0
2017-Mar-17 01:28N 46°33' W 002°26'0 0.1
2017-Mar-17 00:25N 46°33' W 002°26'0 0.2
2017-Mar-16 23:31N 46°33' W 002°26'0 0.0
2017-Mar-16 22:31N 46°33' W 002°26'0 0.0
2017-Mar-16 21:25N 46°33' W 002°26'0 0.0
2017-Mar-16 20:19N 46°33' W 002°26'0 0.1
2017-Mar-16 19:31N 46°33' W 002°26'0 0.1
2017-Mar-16 18:25N 46°33' W 002°26'0 0.1
2017-Mar-16 17:31N 46°33' W 002°26'0 0.0
2017-Mar-16 16:19N 46°33' W 002°26'0 0.1
2017-Mar-16 14:28N 46°33' W 002°26'0 0.2
2017-Mar-16 13:33N 46°33' W 002°26'0 0.5
2017-Mar-16 12:33N 46°33' W 002°26'0 0.2
2017-Mar-16 11:33N 46°33' W 002°26'1 0.7
2017-Mar-16 10:32N 46°33' W 002°27'3 2.6
2017-Mar-16 09:33N 46°35' W 002°25'2 1.9
2017-Mar-16 08:28N 46°34' W 002°26'2 2.4
2017-Mar-16 07:33N 46°35' W 002°24'2 2.5
2017-Mar-16 06:33N 46°33' W 002°26'3 2.7
2017-Mar-16 05:29N 46°36' W 002°23'3 3.1
2017-Mar-16 04:33N 46°33' W 002°26'3 3.0
2017-Mar-16 03:30N 46°36' W 002°23'0 0.1
2017-Mar-16 02:33N 46°36' W 002°23'0 0.0
2017-Mar-16 01:16N 46°36' W 002°23'0 0.0
2017-Mar-16 00:33N 46°36' W 002°23'0 0.0
2017-Mar-15 23:06N 46°36' W 002°23'0 0.0
2017-Mar-15 22:34N 46°36' W 002°23'0 0.0
2017-Mar-15 21:31N 46°36' W 002°23'0 0.0
2017-Mar-15 20:03N 46°36' W 002°23'0 0.5
2017-Mar-15 19:30N 46°36' W 002°23'9 9.0
2017-Mar-15 18:33N 46°33' W 002°11'9 9.0
2017-Mar-15 17:33N 46°31' W 001°58'7 7.4
2017-Mar-15 16:33N 46°30' W 001°47'0 0.2
2017-Mar-15 15:33N 46°30' W 001°47'6 5.5
2017-Mar-15 14:33N 46°30' W 001°55'9 9.2
2017-Mar-15 13:33N 46°32' W 002°08'9 8.8
2017-Mar-15 12:32N 46°35' W 002°21'2 2.0
2017-Mar-15 11:28N 46°35' W 002°24'0 0.3
2017-Mar-15 10:33N 46°36' W 002°24'0 0.3
2017-Mar-15 09:33N 46°36' W 002°24'3 2.9
2017-Mar-15 08:23N 46°33' W 002°27'3 2.2
2017-Mar-15 07:10N 46°35' W 002°24'2 2.6
2017-Mar-15 06:32N 46°34' W 002°26'0 0.4
2017-Mar-15 05:31N 46°33' W 002°26'1 1.3
2017-Mar-15 04:25N 46°34' W 002°24'9 3.2
2017-Mar-15 01:28N 46°44' W 002°21'0 0.0
2017-Mar-14 14:25N 46°44' W 002°21'4 4.1
2017-Mar-14 13:31N 46°42' W 002°16'9 9.3
2017-Mar-14 12:30N 46°34' W 002°24'1 0.9
2017-Mar-14 11:33N 46°34' W 002°25'1 0.6
2017-Mar-14 10:33N 46°34' W 002°25'1 1.3
2017-Mar-14 09:33N 46°33' W 002°26'3 2.8
2017-Mar-14 08:33N 46°35' W 002°23'3 2.5
2017-Mar-14 07:33N 46°33' W 002°26'1 1.0
2017-Mar-14 06:33N 46°33' W 002°27'2 1.6
2017-Mar-14 05:33N 46°34' W 002°25'0 0.4
2017-Mar-14 04:33N 46°34' W 002°26'2 1.8
2017-Mar-14 03:33N 46°35' W 002°24'2 2.2
2017-Mar-14 02:33N 46°34' W 002°27'1 1.2
2017-Mar-14 01:32N 46°33' W 002°27'0 0.0
2017-Mar-14 00:32N 46°33' W 002°27'12 1.2
2017-Mar-13 14:33N 46°41' W 002°16'10 1.0
2017-Mar-13 04:26N 46°33' W 002°26'11 0.7
2017-Mar-12 13:20N 46°44' W 002°20'8 1.0
2017-Mar-12 05:33N 46°36' W 002°23'3 2.7
2017-Mar-12 04:33N 46°34' W 002°25'3 2.9
2017-Mar-12 03:32N 46°36' W 002°22'4 3.4
2017-Mar-12 02:30N 46°34' W 002°26'0 0.0
2017-Mar-11 22:22N 46°34' W 002°26'0 0.1
2017-Mar-11 21:33N 46°34' W 002°26'0 0.0
2017-Mar-11 19:31N 46°33' W 002°26'0 0.0
2017-Mar-11 18:33N 46°33' W 002°26'0 0.1
2017-Mar-11 17:15N 46°33' W 002°26'0 0.1
2017-Mar-11 16:30N 46°33' W 002°26'0 0.0
2017-Mar-11 15:31N 46°33' W 002°26'1 0.6
2017-Mar-11 14:31N 46°34' W 002°25'2 1.5
2017-Mar-11 13:20N 46°35' W 002°24'4 4.5
2017-Mar-11 12:33N 46°34' W 002°29'4 4.4
2017-Mar-11 11:33N 46°34' W 002°35'7 7.4
2017-Mar-11 10:33N 46°34' W 002°24'2 1.9
2017-Mar-11 09:33N 46°36' W 002°23'2 2.1
2017-Mar-11 08:33N 46°34' W 002°25'1 0.6
2017-Mar-11 07:32N 46°35' W 002°24'1 0.9
2017-Mar-11 06:33N 46°36' W 002°24'2 2.0
2017-Mar-11 05:33N 46°34' W 002°26'0 0.2
2017-Mar-11 04:33N 46°34' W 002°26'2 1.9
2017-Mar-11 03:31N 46°36' W 002°24'2 1.8
2017-Mar-11 02:33N 46°35' W 002°26'1 1.4
2017-Mar-11 01:33N 46°34' W 002°27'0 0.1
2017-Mar-11 00:30N 46°34' W 002°27'0 0.0
2017-Mar-10 23:24N 46°34' W 002°27'0 0.0
2017-Mar-10 22:27N 46°34' W 002°27'0 0.0
2017-Mar-10 15:33N 46°33' W 002°27'  

Dump ship's entire track history